Flight Track Log - Related Links

Times and Time Zones

All times are in EDT time to prevent confusion due to time zone crossing. See the AFR7746 flight status page for this flight to view local times or setup timezone preferences in your user account.

Time Position Orientation Groundspeed Altitude Reporting Facility
EDT Latitude Longitude Course Direction KTS MPH feet Rate Location/Type
Wed 10:36:00 AM 48.9901 2.6381 111° Southeast  Level Estimated
Wed 10:37:00 AM 48.9674 2.7261 111° Southeast  Level Estimated
Wed 10:38:00 AM 48.9446 2.8140 112° Southeast  Level Estimated
Wed 10:39:00 AM 48.9217 2.9018 112° Southeast  Level Estimated
Wed 10:40:00 AM 48.8988 2.9896 112° Southeast  Level Estimated
Wed 10:41:00 AM 48.8758 3.0773 112° Southeast  Level Estimated
Wed 10:42:00 AM 48.8528 3.1649 112° Southeast  Level Estimated
Wed 10:43:00 AM 48.8297 3.2524 112° Southeast  Level Estimated
Wed 10:44:00 AM 48.8065 3.3398 112° Southeast  Level Estimated
Wed 10:45:00 AM 48.7832 3.4272 112° Southeast  Level Estimated
Wed 10:46:00 AM 48.7599 3.5145 112° Southeast  Level Estimated
Wed 10:47:00 AM 48.7365 3.6017 112° Southeast  Level Estimated
Wed 10:48:00 AM 48.7131 3.6888 112° Southeast  Level Estimated
Wed 10:49:00 AM 48.6895 3.7758 112° Southeast  Level Estimated
Wed 10:50:00 AM 48.6660 3.8628 112° Southeast  Level Estimated
Wed 10:51:00 AM 48.6423 3.9496 112° Southeast  Level Estimated
Wed 10:52:00 AM 48.6186 4.0364 112° Southeast  Level Estimated
Wed 10:53:00 AM 48.5948 4.1231 112° Southeast  Level Estimated
Wed 10:54:00 AM 48.5710 4.2098 113° Southeast  Level Estimated
Wed 10:55:00 AM 48.5471 4.2963 113° Southeast  Level Estimated
Wed 10:56:00 AM 48.5231 4.3828 113° Southeast  Level Estimated
Wed 10:57:00 AM 48.4991 4.4691 113° Southeast  Level Estimated
Wed 10:58:00 AM 48.4749 4.5554 113° Southeast  Level Estimated
Wed 10:59:00 AM 48.4508 4.6417 113° Southeast  Level Estimated
Wed 11:00:00 AM 48.4266 4.7278 113° Southeast  Level Estimated
Wed 11:01:00 AM 48.4022 4.8138 113° Southeast  Level Estimated
Wed 11:02:00 AM 48.3779 4.8998 113° Southeast  Level Estimated
Wed 11:03:00 AM 48.3535 4.9857 113° Southeast  Level Estimated
Wed 11:04:00 AM 48.3345 5.0521 113° Southeast  Level Estimated
Wed 11:05:00 AM 48.3156 5.1184 113° Southeast  Level Estimated
Wed 11:06:00 AM 48.2966 5.1846 113° Southeast  Level Estimated
Wed 11:07:00 AM 48.2775 5.2508 113° Southeast  Level Estimated
Wed 11:08:00 AM 48.2584 5.3170 113° Southeast  Level Estimated
Wed 11:09:00 AM 48.2393 5.3831 113° Southeast  Level Estimated
Wed 11:10:00 AM 48.2201 5.4492 114° Southeast  Level Estimated
Wed 11:11:00 AM 48.2010 5.5152 114° Southeast  Level Estimated
Wed 11:12:00 AM 48.1817 5.5812 114° Southeast  Level Estimated
Wed 11:13:00 AM 48.1624 5.6471 114° Southeast  Level Estimated
Wed 11:14:00 AM 48.1431 5.7130 114° Southeast  Level Estimated
Wed 11:15:00 AM 48.1238 5.7788 114° Southeast  Level Estimated
Wed 11:16:00 AM 48.1044 5.8446 114° Southeast  Level Estimated
Wed 11:17:00 AM 48.0850 5.9103 114° Southeast  Level Estimated
Wed 11:18:00 AM 48.0655 5.9759 114° Southeast  Level Estimated
Wed 11:19:00 AM 48.0460 6.0416 114° Southeast  Level Estimated
Wed 11:20:00 AM 48.0265 6.1071 114° Southeast  Level Estimated
Wed 11:21:00 AM 48.0069 6.1727 114° Southeast  Level Estimated
Wed 11:22:00 AM 47.9873 6.2381 114° Southeast  Level Estimated
Wed 11:23:00 AM 47.9676 6.3035 114° Southeast  Level Estimated
Wed 11:24:00 AM 47.9479 6.3689 114° Southeast  Level Estimated
Wed 11:25:00 AM 47.9282 6.4342 114° Southeast  Level Estimated
Wed 11:26:00 AM 47.9085 6.4995 114° Southeast  Level Estimated
Wed 11:27:00 AM 47.8887 6.5647 114° Southeast  Level Estimated
Wed 11:28:00 AM 47.8688 6.6299 114° Southeast  Level Estimated
Wed 11:29:00 AM 47.8490 6.6950 114° Southeast  Level Estimated
Wed 11:30:00 AM 47.8291 6.7601 114° Southeast  Level Estimated
Wed 11:31:00 AM 47.8091 6.8251 115° Southeast  Level Estimated
Wed 11:32:00 AM 47.7891 6.8901 115° Southeast  Level Estimated
Wed 11:33:00 AM 47.7691 6.9550 115° Southeast  Level Estimated
Wed 11:34:00 AM 47.7491 7.0199 115° Southeast  Level Estimated
Wed 11:35:00 AM 47.7290 7.0847 115° Southeast  Level Estimated
Wed 11:36:00 AM 47.7089 7.1495 115° Southeast  Level Estimated
Wed 11:37:00 AM 47.6887 7.2142 115° Southeast  Level Estimated
Wed 11:38:00 AM 47.6685 7.2789 115° Southeast  Level Estimated
Wed 11:39:00 AM 47.6483 7.3435 115° Southeast  Level Estimated
Wed 11:40:00 AM 47.6280 7.4080 115° Southeast  Level Estimated
Wed 11:41:00 AM 47.6077 7.4726 115° Southeast  Level Estimated
Wed 11:42:00 AM 47.5896 7.5299 115° Southeast  Level Estimated
Wed 11:43:00 AM 47.5896 7.5299 42° Northeast  Level Estimated
Wed 11:44:00 AM 47.5896 7.5299 42° Northeast  Level Estimated
Wed 11:45:00 AM 47.5896 7.5299 42° Northeast  Level Estimated
Wed 11:46:00 AM 47.5896 7.5299 42° Northeast  Level Estimated
Wed 11:47:00 AM 47.5896 7.5299 42° Northeast  Level Estimated
Wed 11:48:00 AM 47.5896 7.5299 42° Northeast  Level Estimated
Wed 11:49:00 AM 47.5896 7.5299 42° Northeast  Level Estimated
Wed 11:50:00 AM 47.5896 7.5299 42° Northeast  Level Estimated
Wed 11:51:00 AM 47.5896 7.5299 42° Northeast  Level Estimated
Wed 11:52:00 AM 47.5896 7.5299 42° Northeast  Level Estimated
Wed 11:53:00 AM 47.5896 7.5299 42° Northeast  Level Estimated
Wed 11:54:00 AM 47.5896 7.5299 42° Northeast  Level Estimated
Wed 11:55:00 AM 47.5896 7.5299 42° Northeast  Level Estimated
Wed 11:56:00 AM 47.5896 7.5299 42° Northeast  Level Estimated

Login

Don't have an account? Register now (free) for customized features, flight alerts, and more!